Time;durP1;ratioP1;P1;durP2;ratioP2;P2;SDS_P1;SDS_P2;PMS_P1;PMS_P2;Temp;Humidity;BMP_temperature;BMP_pressure;BME280_temperature;BME280_humidity;BME280_pressure;Samples;Min_cycle;Max_cycle;Signal;HPM_P1;HPM_P2
2022/09/09 00:01:55;;;;;;;;;;;;;;;;;;8381988;28;28585;-80
2022/09/09 00:05:55;;;;;;;;;;;;;;;;;;8370957;28;28612;-79
2022/09/09 00:09:55;;;;;;;;;;;;;;;;;;8388585;27;28660;-79
2022/09/09 00:13:55;;;;;;;;;;;;;;;;;;8376323;28;28274;-80
2022/09/09 00:17:56;;;;;;;;;;;;;;;;;;8392587;27;27838;-79
2022/09/09 00:21:57;;;;;;;;;;;;;;;;;;8377235;28;28479;-80
2022/09/09 00:25:57;;;;;;;;;;;;;;;;;;8391658;27;27419;-79
2022/09/09 00:29:58;;;;;;;;;;;;;;;;;;8387345;27;29456;-80
2022/09/09 00:33:58;;;;;;;;;;;;;;;;;;8386969;28;28231;-80
2022/09/09 00:37:58;;;;;;;;;;;;;;;;;;8378479;27;28552;-80
2022/09/09 00:41:59;;;;;;;;;;;;;;;;;;8375458;27;28281;-79
2022/09/09 00:45:59;;;;;;;;;;;;;;;;;;8373891;28;28626;-80
2022/09/09 00:50:00;;;;;;;;;;;;;;;;;;8385074;27;28130;-80
2022/09/09 00:54:01;;;;;;;;;;;;;;;;;;8371124;27;28368;-80
2022/09/09 00:58:01;;;;;;;;;;;;;;;;;;8384402;27;27344;-79
2022/09/09 01:02:01;;;;;;;;;;;;;;;;;;8384019;28;28258;-79
2022/09/09 01:06:04;;;;;;;;;;;;;;;;;;8374193;28;28509;-80
2022/09/09 01:10:04;;;;;;;;;;;;;;;;;;8385068;28;27340;-79
2022/09/09 01:14:05;;;;;;;;;;;;;;;;;;8375834;28;28466;-79
2022/09/09 01:18:05;;;;;;;;;;;;;;;;;;8373845;28;28420;-78
2022/09/09 01:22:06;;;;;;;;;;;;;;;;;;8374392;27;28180;-79
2022/09/09 01:26:06;;;;;;;;;;;;;;;;;;8385814;28;27585;-79
2022/09/09 01:30:06;;;;;;;;;;;;;;;;;;8372804;27;28186;-80
2022/09/09 01:34:06;;;;;;;;;;;;;;;;;;8386093;28;29210;-79
2022/09/09 01:38:06;;;;;;;;;;;;;;;;;;8383722;27;27680;-79
2022/09/09 01:42:06;;;;;;;;;;;;;;;;;;8371374;28;28325;-80
2022/09/09 01:46:06;;;;;;;;;;;;;;;;;;8384698;27;27778;-79
2022/09/09 01:50:07;;;;;;;;;;;;;;;;;;8382303;27;29130;-80
2022/09/09 01:54:07;;;;;;;;;;;;;;;;;;8385887;28;27418;-79
2022/09/09 01:58:08;;;;;;;;;;;;;;;;;;8384402;28;27264;-80
2022/09/09 02:02:08;;;;;;;;;;;;;;;;;;8365516;27;28153;-79
2022/09/09 02:06:08;;;;;;;;;;;;;;;;;;8382424;27;28215;-79
2022/09/09 02:10:08;;;;;;;;;;;;;;;;;;8371466;28;28655;-80
2022/09/09 02:14:08;;;;;;;;;;;;;;;;;;8380162;28;29368;-79
2022/09/09 02:18:08;;;;;;;;;;;;;;;;;;8368709;28;29658;-78
2022/09/09 02:22:08;;;;;;;;;;;;;;;;;;8370890;28;28213;-80
2022/09/09 02:26:08;;;;;;;;;;;;;;;;;;8384198;28;27404;-78
2022/09/09 02:30:09;;;;;;;;;;;;;;;;;;8369072;28;29594;-80
2022/09/09 02:34:10;;;;;;;;;;;;;;;;;;8370889;28;28221;-80
2022/09/09 02:38:10;;;;;;;;;;;;;;;;;;8385752;28;28076;-79
2022/09/09 02:42:10;;;;;;;;;;;;;;;;;;8371356;28;29079;-79
2022/09/09 02:46:11;;;;;;;;;;;;;;;;;;8383310;28;28258;-79
2022/09/09 02:50:11;;;;;;;;;;;;;;;;;;8384228;28;27461;-80
2022/09/09 02:54:12;;;;;;;;;;;;;;;;;;8380862;28;28171;-80
2022/09/09 02:58:12;;;;;;;;;;;;;;;;;;8381234;28;27678;-79
2022/09/09 03:02:12;;;;;;;;;;;;;;;;;;8361241;28;29669;-79
2022/09/09 03:06:12;;;;;;;;;;;;;;;;;;8378358;28;28857;-80
2022/09/09 03:10:13;;;;;;;;;;;;;;;;;;8379039;28;27780;-79
2022/09/09 03:14:13;;;;;;;;;;;;;;;;;;8383389;27;27681;-79
2022/09/09 03:18:13;;;;;;;;;;;;;;;;;;8379066;27;28459;-78
2022/09/09 03:22:13;;;;;;;;;;;;;;;;;;8378366;28;27452;-79
2022/09/09 03:26:14;;;;;;;;;;;;;;;;;;8365149;28;28312;-80
2022/09/09 03:30:15;;;;;;;;;;;;;;;;;;8371131;28;28709;-79
2022/09/09 03:34:15;;;;;;;;;;;;;;;;;;8384202;27;27756;-80
2022/09/09 03:38:15;;;;;;;;;;;;;;;;;;8365352;28;29756;-80
2022/09/09 03:42:18;;;;;;;;;;;;;;;;;;8390261;28;27397;-79
2022/09/09 03:46:18;;;;;;;;;;;;;;;;;;8374087;28;28725;-79
2022/09/09 03:50:18;;;;;;;;;;;;;;;;;;8370521;27;28725;-79
2022/09/09 03:54:19;;;;;;;;;;;;;;;;;;8388788;27;27706;-80
2022/09/09 03:58:19;;;;;;;;;;;;;;;;;;8391902;28;27465;-79
2022/09/09 04:02:20;;;;;;;;;;;;;;;;;;8390974;27;27386;-79
2022/09/09 04:06:21;;;;;;;;;;;;;;;;;;8374383;28;28689;-80
2022/09/09 04:10:21;;;;;;;;;;;;;;;;;;8388852;28;27818;-79
2022/09/09 04:14:21;;;;;;;;;;;;;;;;;;8394195;27;28100;-79
2022/09/09 04:18:22;;;;;;;;;;;;;;;;;;8375497;27;28343;-79
2022/09/09 04:22:22;;;;;;;;;;;;;;;;;;8370498;28;28347;-78
2022/09/09 04:26:22;;;;;;;;;;;;;;;;;;8389694;28;27631;-79
2022/09/09 04:30:22;;;;;;;;;;;;;;;;;;8371089;28;27554;-79
2022/09/09 04:34:22;;;;;;;;;;;;;;;;;;8369378;28;27552;-79
2022/09/09 04:38:22;;;;;;;;;;;;;;;;;;8369617;28;28818;-79
2022/09/09 04:42:23;;;;;;;;;;;;;;;;;;8370801;28;28191;-80
2022/09/09 04:46:23;;;;;;;;;;;;;;;;;;8381837;28;27945;-80
2022/09/09 04:50:24;;;;;;;;;;;;;;;;;;8368326;27;27590;-78
2022/09/09 04:54:25;;;;;;;;;;;;;;;;;;8379444;28;27471;-79
2022/09/09 04:58:26;;;;;;;;;;;;;;;;;;8370952;28;28959;-78
2022/09/09 05:02:26;;;;;;;;;;;;;;;;;;8371310;28;28372;-79
2022/09/09 05:06:26;;;;;;;;;;;;;;;;;;8364788;27;27652;-79
2022/09/09 05:10:26;;;;;;;;;;;;;;;;;;8366526;27;27390;-79
2022/09/09 05:14:27;;;;;;;;;;;;;;;;;;8371563;28;28206;-80
2022/09/09 05:18:27;;;;;;;;;;;;;;;;;;8370014;27;27317;-79
2022/09/09 05:22:27;;;;;;;;;;;;;;;;;;8386888;28;28229;-80
2022/09/09 05:26:29;;;;;;;;;;;;;;;;;;8365656;28;28660;-80
2022/09/09 05:30:29;;;;;;;;;;;;;;;;;;8379496;28;27927;-79
2022/09/09 05:34:29;;;;;;;;;;;;;;;;;;8387093;28;28351;-80
2022/09/09 05:38:29;;;;;;;;;;;;;;;;;;8365700;27;28209;-79
2022/09/09 05:42:30;;;;;;;;;;;;;;;;;;8385692;28;27369;-80
2022/09/09 05:46:30;;;;;;;;;;;;;;;;;;8371112;28;28043;-79
2022/09/09 05:50:31;;;;;;;;;;;;;;;;;;8368131;28;31082;-79
2022/09/09 05:54:32;;;;;;;;;;;;;;;;;;8366059;27;29645;-79
2022/09/09 05:58:32;;;;;;;;;;;;;;;;;;8371260;28;27366;-79
2022/09/09 06:02:32;;;;;;;;;;;;;;;;;;8383533;28;28713;-80
2022/09/09 06:06:36;;;;;;;;;;;;;;;;;;8373106;28;28359;-79
2022/09/09 06:10:36;;;;;;;;;;;;;;;;;;8364856;28;28294;-79
2022/09/09 06:14:36;;;;;;;;;;;;;;;;;;8368120;28;28487;-79
2022/09/09 06:18:36;;;;;;;;;;;;;;;;;;8371601;28;28556;-79
2022/09/09 06:22:37;;;;;;;;;;;;;;;;;;8365209;27;28487;-78
2022/09/09 06:26:37;;;;;;;;;;;;;;;;;;8380771;27;27386;-78
2022/09/09 06:30:37;;;;;;;;;;;;;;;;;;8362961;28;28286;-78
2022/09/09 06:34:37;;;;;;;;;;;;;;;;;;8387328;27;29305;-78
2022/09/09 06:38:38;;;;;;;;;;;;;;;;;;8380233;27;28581;-77
2022/09/09 06:42:38;;;;;;;;;;;;;;;;;;8384554;28;28204;-80
2022/09/09 06:46:39;;;;;;;;;;;;;;;;;;8378925;27;28307;-78
2022/09/09 06:50:39;;;;;;;;;;;;;;;;;;8364120;27;28200;-78
2022/09/09 06:54:39;;;;;;;;;;;;;;;;;;8377708;27;28544;-79
2022/09/09 06:58:43;;;;;;;;;;;;;;;;;;8361560;28;28788;-79
2022/09/09 07:02:44;;;;;;;;;;;;;;;;;;8362468;28;28701;-81
2022/09/09 07:06:45;;;;;;;;;;;;;;;;;;8367297;28;28433;-80
2022/09/09 07:10:46;;;;;;;;;;;;;;;;;;8380002;28;28098;-79
2022/09/09 07:14:47;;;;;;;;;;;;;;;;;;8366258;28;28443;-80
2022/09/09 07:18:47;;;;;;;;;;;;;;;;;;8367112;28;28460;-80
2022/09/09 07:22:47;;;;;;;;;;;;;;;;;;8361903;28;28417;-80
2022/09/09 07:26:48;;;;;;;;;;;;;;;;;;8380086;28;27481;-78
2022/09/09 07:30:48;;;;;;;;;;;;;;;;;;8364720;27;28294;-79
2022/09/09 07:34:50;;;;;;;;;;;;;;;;;;8378736;27;27690;-80
2022/09/09 07:38:51;;;;;;;;;;;;;;;;;;8366006;28;28626;-80
2022/09/09 07:42:51;;;;;;;;;;;;;;;;;;8365281;28;29461;-80
2022/09/09 07:46:51;;;;;;;;;;;;;;;;;;8378968;28;27175;-80
2022/09/09 07:50:51;;;;;;;;;;;;;;;;;;8361924;27;29078;-80
2022/09/09 07:54:52;;;;;;;;;;;;;;;;;;8379706;27;28137;-80
2022/09/09 07:58:52;;;;;;;;;;;;;;;;;;8373930;27;28382;-79
2022/09/09 08:02:53;;;;;;;;;;;;;;;;;;8365863;28;28177;-80
2022/09/09 08:06:54;;;;;;;;;;;;;;;;;;8377794;28;28344;-80
2022/09/09 08:10:54;;;;;;;;;;;;;;;;;;8366798;28;28321;-80
2022/09/09 08:14:54;;;;;;;;;;;;;;;;;;8364300;28;28373;-80
2022/09/09 08:18:54;;;;;;;;;;;;;;;;;;8382302;27;28123;-80
2022/09/09 08:22:55;;;;;;;;;;;;;;;;;;8362105;28;28626;-80
2022/09/09 08:26:56;;;;;;;;;;;;;;;;;;8361325;28;28805;-80
2022/09/09 08:30:56;;;;;;;;;;;;;;;;;;8381854;27;28421;-80
2022/09/09 08:34:57;;;;;;;;;;;;;;;;;;8364972;28;29638;-79
2022/09/09 08:38:57;;;;;;;;;;;;;;;;;;8361281;27;28989;-80
2022/09/09 08:42:57;;;;;;;;;;;;;;;;;;8362690;27;28480;-80
2022/09/09 08:46:57;;;;;;;;;;;;;;;;;;8378393;28;29193;-80
2022/09/09 08:51:01;;;;;;;;;;;;;;;;;;8367062;27;29088;-80
2022/09/09 08:55:01;;;;;;;;;;;;;;;;;;8380087;27;27199;-78
2022/09/09 08:59:03;;;;;;;;;;;;;;;;;;8381534;27;28450;-78
2022/09/09 09:03:03;;;;;;;;;;;;;;;;;;8384635;27;27540;-80
2022/09/09 09:07:04;;;;;;;;;;;;;;;;;;8364076;27;28198;-81
2022/09/09 09:11:05;;;;;;;;;;;;;;;;;;8366081;28;29525;-82
2022/09/09 09:15:05;;;;;;;;;;;;;;;;;;8369479;28;28370;-81
2022/09/09 09:19:06;;;;;;;;;;;;;;;;;;8361784;27;29537;-82
2022/09/09 09:23:06;;;;;;;;;;;;;;;;;;8369191;28;28575;-82
2022/09/09 09:27:06;;;;;;;;;;;;;;;;;;8366773;27;28674;-82
2022/09/09 09:31:06;;;;;;;;;;;;;;;;;;8367050;28;28669;-82
2022/09/09 09:35:07;;;;;;;;;;;;;;;;;;8364666;28;29218;-82
2022/09/09 09:39:09;;;;;;;;;;;;;;;;;;8366941;28;28486;-82
2022/09/09 09:43:09;;;;;;;;;;;;;;;;;;8367789;27;28287;-81
2022/09/09 09:47:10;;;;;;;;;;;;;;;;;;8366476;27;29063;-81
2022/09/09 09:51:12;;;;;;;;;;;;;;;;;;8381532;27;28350;-82
2022/09/09 09:55:12;;;;;;;;;;;;;;;;;;8367751;28;28373;-81
2022/09/09 09:59:12;;;;;;;;;;;;;;;;;;8365094;28;28363;-82
2022/09/09 10:03:12;;;;;;;;;;;;;;;;;;8379062;27;28837;-82
2022/09/09 10:07:12;;;;;;;;;;;;;;;;;;8369409;28;29533;-77
2022/09/09 10:11:16;;;;;;;;;;;;;;;;;;8367817;28;29596;-78
2022/09/09 10:15:17;;;;;;;;;;;;;;;;;;8376605;27;28540;-78
2022/09/09 10:19:17;;;;;;;;;;;;;;;;;;8373051;28;29534;-79
2022/09/09 10:23:17;;;;;;;;;;;;;;;;;;8355648;28;29484;-80
2022/09/09 10:27:17;;;;;;;;;;;;;;;;;;8364020;28;29372;-80
2022/09/09 10:31:17;;;;;;;;;;;;;;;;;;8362850;28;28349;-80
2022/09/09 10:35:17;;;;;;;;;;;;;;;;;;8361905;27;28771;-81
2022/09/09 10:39:18;;;;;;;;;;;;;;;;;;8372223;28;28452;-79
2022/09/09 10:43:18;;;;;;;;;;;;;;;;;;8358121;27;29978;-80
2022/09/09 10:47:18;;;;;;;;;;;;;;;;;;8376109;28;28626;-79
2022/09/09 10:51:18;;;;;;;;;;;;;;;;;;8370035;28;28357;-80
2022/09/09 10:55:20;;;;;;;;;;;;;;;;;;8373702;28;47560;-79
2022/09/09 10:59:22;;;;;;;;;;;;;;;;;;8372743;27;27741;-81
2022/09/09 11:03:22;;;;;;;;;;;;;;;;;;8355159;28;28849;-80
2022/09/09 11:07:22;;;;;;;;;;;;;;;;;;8362284;28;28375;-81
2022/09/09 11:11:22;;;;;;;;;;;;;;;;;;8362485;28;28238;-80
2022/09/09 11:15:23;;;;;;;;;;;;;;;;;;8363955;28;28512;-81
2022/09/09 11:19:23;;;;;;;;;;;;;;;;;;8359694;28;28385;-81
2022/09/09 11:23:23;;;;;;;;;;;;;;;;;;8373729;28;28578;-81
2022/09/09 11:27:24;;;;;;;;;;;;;;;;;;8357368;28;28290;-82
2022/09/09 11:31:26;;;;;;;;;;;;;;;;;;8375410;27;27936;-81
2022/09/09 11:35:26;;;;;;;;;;;;;;;;;;8357031;28;28624;-81
2022/09/09 11:39:26;;;;;;;;;;;;;;;;;;8379152;27;27252;-81
2022/09/09 11:43:26;;;;;;;;;;;;;;;;;;8360613;28;28788;-79
2022/09/09 11:47:29;;;;;;;;;;;;;;;;;;8377142;28;28010;-83
2022/09/09 11:51:30;;;;;;;;;;;;;;;;;;8380811;28;27361;-83
2022/09/09 11:55:30;;;;;;;;;;;;;;;;;;8365927;28;28242;-82
2022/09/09 11:59:31;;;;;;;;;;;;;;;;;;8362706;28;28873;-80
2022/09/09 12:03:31;;;;;;;;;;;;;;;;;;8372910;28;29404;-80
2022/09/09 12:07:31;;;;;;;;;;;;;;;;;;8381646;27;27780;-80
2022/09/09 12:11:31;;;;;;;;;;;;;;;;;;8370787;28;28365;-81
2022/09/09 12:15:31;;;;;;;;;;;;;;;;;;8385517;28;27921;-81
2022/09/09 12:19:31;;;;;;;;;;;;;;;;;;8369914;28;29617;-80
2022/09/09 12:23:31;;;;;;;;;;;;;;;;;;8382892;28;28460;-79
2022/09/09 12:27:32;;;;;;;;;;;;;;;;;;8365122;27;28581;-81
2022/09/09 12:31:34;;;;;;;;;;;;;;;;;;8368728;28;28337;-79
2022/09/09 12:35:34;;;;;;;;;;;;;;;;;;8380909;27;27533;-83
2022/09/09 12:39:34;;;;;;;;;;;;;;;;;;8369614;27;28305;-82
2022/09/09 12:43:34;;;;;;;;;;;;;;;;;;8381385;27;28360;-81
2022/09/09 12:47:35;;;;;;;;;;;;;;;;;;8366713;28;28766;-82
2022/09/09 12:51:35;;;;;;;;;;;;;;;;;;8386860;27;27322;-82
2022/09/09 12:55:35;;;;;;;;;;;;;;;;;;8384276;27;27469;-81
2022/09/09 12:59:35;;;;;;;;;;;;;;;;;;8384325;27;29163;-83
2022/09/09 13:03:36;;;;;;;;;;;;;;;;;;8383346;27;27329;-82
2022/09/09 13:07:36;;;;;;;;;;;;;;;;;;8387459;27;28188;-81
2022/09/09 13:11:36;;;;;;;;;;;;;;;;;;8383543;27;28195;-80
2022/09/09 13:15:36;;;;;;;;;;;;;;;;;;8367059;28;29437;-83
2022/09/09 13:19:36;;;;;;;;;;;;;;;;;;8367199;27;29505;-83
2022/09/09 13:23:36;;;;;;;;;;;;;;;;;;8373554;27;27432;-83
2022/09/09 13:27:40;;;;;;;;;;;;;;;;;;8373856;27;27384;-84
2022/09/09 13:31:40;;;;;;;;;;;;;;;;;;8360734;28;28304;-81
2022/09/09 13:35:40;;;;;;;;;;;;;;;;;;8368695;28;30263;-83
2022/09/09 13:39:40;;;;;;;;;;;;;;;;;;8382362;28;28659;-83
2022/09/09 13:43:40;;;;;;;;;;;;;;;;;;8363236;28;28580;-83
2022/09/09 13:47:41;;;;;;;;;;;;;;;;;;8361222;28;28651;-83
2022/09/09 13:51:42;;;;;;;;;;;;;;;;;;8375619;28;27466;-82
2022/09/09 13:55:42;;;;;;;;;;;;;;;;;;8379780;27;27145;-81
2022/09/09 13:59:42;;;;;;;;;;;;;;;;;;8377565;27;28251;-82
2022/09/09 14:03:43;;;;;;;;;;;;;;;;;;8366101;27;28213;-82
2022/09/09 14:07:43;;;;;;;;;;;;;;;;;;8380184;27;27913;-81
2022/09/09 14:11:43;;;;;;;;;;;;;;;;;;8378577;27;27364;-82
2022/09/09 14:15:43;;;;;;;;;;;;;;;;;;8382806;28;28153;-80
2022/09/09 14:19:45;;;;;;;;;;;;;;;;;;8384832;27;27983;-82
2022/09/09 14:23:45;;;;;;;;;;;;;;;;;;8378889;28;27519;-82
2022/09/09 14:27:46;;;;;;;;;;;;;;;;;;8385140;27;27614;-80
2022/09/09 14:31:46;;;;;;;;;;;;;;;;;;8379604;28;27911;-80
2022/09/09 14:35:46;;;;;;;;;;;;;;;;;;8363383;28;28500;-80
2022/09/09 14:39:47;;;;;;;;;;;;;;;;;;8377362;28;27387;-80
2022/09/09 14:43:47;;;;;;;;;;;;;;;;;;8376371;27;28499;-80
2022/09/09 14:47:47;;;;;;;;;;;;;;;;;;8383900;28;27646;-78
2022/09/09 14:51:47;;;;;;;;;;;;;;;;;;8363427;28;28290;-79
2022/09/09 14:55:48;;;;;;;;;;;;;;;;;;8378352;27;27450;-78
2022/09/09 14:59:50;;;;;;;;;;;;;;;;;;8365561;28;28320;-80
2022/09/09 15:03:50;;;;;;;;;;;;;;;;;;8362912;28;28840;-81
2022/09/09 15:07:50;;;;;;;;;;;;;;;;;;8361486;28;28695;-81
2022/09/09 15:11:50;;;;;;;;;;;;;;;;;;8378442;28;28151;-80
2022/09/09 15:15:51;;;;;;;;;;;;;;;;;;8377389;28;27452;-81
2022/09/09 15:19:51;;;;;;;;;;;;;;;;;;8361456;28;28425;-79
2022/09/09 15:23:51;;;;;;;;;;;;;;;;;;8375328;27;28191;-80
2022/09/09 15:27:51;;;;;;;;;;;;;;;;;;8357484;28;28295;-82
2022/09/09 15:31:51;;;;;;;;;;;;;;;;;;8364243;28;28731;-81
2022/09/09 15:35:51;;;;;;;;;;;;;;;;;;8363538;28;28453;-81
2022/09/09 15:39:51;;;;;;;;;;;;;;;;;;8354930;27;29544;-81
2022/09/09 15:43:52;;;;;;;;;;;;;;;;;;8359998;28;28669;-79
2022/09/09 15:47:52;;;;;;;;;;;;;;;;;;8376025;28;28076;-81
2022/09/09 15:51:52;;;;;;;;;;;;;;;;;;8372209;28;28994;-81
2022/09/09 15:55:52;;;;;;;;;;;;;;;;;;8375104;28;27360;-81
2022/09/09 15:59:52;;;;;;;;;;;;;;;;;;8357858;28;28232;-82
2022/09/09 16:03:52;;;;;;;;;;;;;;;;;;8377707;28;28115;-82
2022/09/09 16:07:53;;;;;;;;;;;;;;;;;;8361045;28;28431;-81
2022/09/09 16:11:53;;;;;;;;;;;;;;;;;;8360680;27;29770;-81
2022/09/09 16:15:53;;;;;;;;;;;;;;;;;;8364683;28;28622;-80
2022/09/09 16:19:54;;;;;;;;;;;;;;;;;;8362422;28;29963;-82
2022/09/09 16:23:54;;;;;;;;;;;;;;;;;;8358667;28;27641;-81
2022/09/09 16:27:54;;;;;;;;;;;;;;;;;;8376701;28;27645;-81
2022/09/09 16:31:54;;;;;;;;;;;;;;;;;;8357442;28;29772;-80
2022/09/09 16:35:55;;;;;;;;;;;;;;;;;;8377874;28;27662;-81
2022/09/09 16:39:55;;;;;;;;;;;;;;;;;;8376056;28;27857;-82
2022/09/09 16:43:55;;;;;;;;;;;;;;;;;;8363835;28;28466;-82
2022/09/09 16:47:55;;;;;;;;;;;;;;;;;;8378711;27;27595;-79
2022/09/09 16:51:55;;;;;;;;;;;;;;;;;;8383499;27;28464;-82
2022/09/09 16:55:55;;;;;;;;;;;;;;;;;;8381495;28;29658;-83
2022/09/09 16:59:59;;;;;;;;;;;;;;;;;;8366804;28;28207;-82
2022/09/09 17:04:00;;;;;;;;;;;;;;;;;;8388202;28;27723;-81
2022/09/09 17:08:00;;;;;;;;;;;;;;;;;;8368146;28;28361;-81
2022/09/09 17:12:00;;;;;;;;;;;;;;;;;;8381513;27;27289;-82
2022/09/09 17:16:01;;;;;;;;;;;;;;;;;;8381062;28;27465;-82
2022/09/09 17:20:02;;;;;;;;;;;;;;;;;;8383225;27;27563;-83
2022/09/09 17:24:02;;;;;;;;;;;;;;;;;;8376902;28;27515;-80
2022/09/09 17:28:03;;;;;;;;;;;;;;;;;;8357691;28;28469;-81
2022/09/09 17:32:05;;;;;;;;;;;;;;;;;;8378107;28;27444;-82
2022/09/09 17:36:05;;;;;;;;;;;;;;;;;;8371473;28;27348;-82
2022/09/09 17:40:05;;;;;;;;;;;;;;;;;;8374483;27;27351;-82
2022/09/09 17:44:05;;;;;;;;;;;;;;;;;;8365327;27;28372;-82
2022/09/09 17:48:07;;;;;;;;;;;;;;;;;;8359982;27;28621;-80
2022/09/09 17:52:07;;;;;;;;;;;;;;;;;;8365838;28;29657;-82
2022/09/09 17:56:07;;;;;;;;;;;;;;;;;;8353538;28;28435;-81
2022/09/09 18:00:08;;;;;;;;;;;;;;;;;;8375248;27;27739;-80
2022/09/09 18:04:08;;;;;;;;;;;;;;;;;;8361863;27;27463;-79
2022/09/09 18:12:22;;;;;;;;;;;;;;;;;;8340684;23;28004;-81
2022/09/09 18:16:23;;;;;;;;;;;;;;;;;;8360576;27;28719;-80
2022/09/09 18:20:23;;;;;;;;;;;;;;;;;;8374645;28;27495;-77
2022/09/09 18:24:24;;;;;;;;;;;;;;;;;;8364488;28;28827;-78
2022/09/09 18:28:24;;;;;;;;;;;;;;;;;;8380400;28;28001;-79
2022/09/09 18:32:25;;;;;;;;;;;;;;;;;;8369023;28;28805;-81
2022/09/09 18:36:25;;;;;;;;;;;;;;;;;;8349464;28;29621;-81
2022/09/09 18:40:26;;;;;;;;;;;;;;;;;;8368574;28;28027;-81
2022/09/09 18:44:26;;;;;;;;;;;;;;;;;;8356223;28;28613;-81
2022/09/09 18:48:27;;;;;;;;;;;;;;;;;;8372963;27;28151;-81
2022/09/09 18:52:27;;;;;;;;;;;;;;;;;;8374438;28;28642;-80
2022/09/09 18:56:28;;;;;;;;;;;;;;;;;;8357397;28;28843;-81
2022/09/09 19:00:28;;;;;;;;;;;;;;;;;;8375858;28;27603;-81
2022/09/09 19:04:28;;;;;;;;;;;;;;;;;;8358009;28;28445;-80
2022/09/09 19:08:28;;;;;;;;;;;;;;;;;;8359834;28;28293;-80
2022/09/09 19:12:28;;;;;;;;;;;;;;;;;;8359813;28;28366;-81
2022/09/09 19:16:29;;;;;;;;;;;;;;;;;;8353065;28;28423;-81
2022/09/09 19:20:29;;;;;;;;;;;;;;;;;;8366909;28;28869;-81
2022/09/09 19:24:29;;;;;;;;;;;;;;;;;;8379997;28;27710;-81
2022/09/09 19:28:29;;;;;;;;;;;;;;;;;;8379045;28;27397;-79
2022/09/09 19:32:29;;;;;;;;;;;;;;;;;;8361177;28;28430;-77
2022/09/09 19:36:30;;;;;;;;;;;;;;;;;;8356176;28;28194;-77
2022/09/09 19:40:30;;;;;;;;;;;;;;;;;;8372530;28;29087;-80
2022/09/09 19:44:30;;;;;;;;;;;;;;;;;;8365864;28;28516;-78
2022/09/09 19:48:30;;;;;;;;;;;;;;;;;;8375506;28;27646;-77
2022/09/09 19:52:31;;;;;;;;;;;;;;;;;;8380131;28;27633;-78
2022/09/09 19:56:31;;;;;;;;;;;;;;;;;;8380661;28;27780;-78
2022/09/09 20:00:31;;;;;;;;;;;;;;;;;;8362594;28;28670;-79
2022/09/09 20:04:34;;;;;;;;;;;;;;;;;;8361213;28;28333;-78
2022/09/09 20:08:34;;;;;;;;;;;;;;;;;;8379481;28;27394;-79
2022/09/09 20:12:34;;;;;;;;;;;;;;;;;;8378520;28;27574;-80
2022/09/09 20:16:34;;;;;;;;;;;;;;;;;;8364456;28;28314;-78
2022/09/09 20:20:34;;;;;;;;;;;;;;;;;;8379847;28;28629;-79
2022/09/09 20:24:35;;;;;;;;;;;;;;;;;;8363192;28;28176;-79
2022/09/09 20:28:35;;;;;;;;;;;;;;;;;;8382995;28;28244;-81
2022/09/09 20:32:36;;;;;;;;;;;;;;;;;;8385208;28;27960;-81
2022/09/09 20:36:36;;;;;;;;;;;;;;;;;;8361140;28;28406;-79
2022/09/09 20:40:36;;;;;;;;;;;;;;;;;;8368538;28;28557;-79
2022/09/09 20:44:36;;;;;;;;;;;;;;;;;;8375537;28;27517;-80
2022/09/09 20:48:36;;;;;;;;;;;;;;;;;;8375039;28;27392;-80
2022/09/09 20:52:36;;;;;;;;;;;;;;;;;;8376495;28;27623;-80
2022/09/09 20:56:38;;;;;;;;;;;;;;;;;;8362527;28;29737;-79
2022/09/09 21:00:38;;;;;;;;;;;;;;;;;;8374448;28;28435;-79
2022/09/09 21:04:38;;;;;;;;;;;;;;;;;;8376747;28;28191;-79
2022/09/09 21:08:39;;;;;;;;;;;;;;;;;;8379031;28;28443;-80
2022/09/09 21:12:39;;;;;;;;;;;;;;;;;;8372354;28;29464;-78
2022/09/09 21:16:40;;;;;;;;;;;;;;;;;;8384097;28;27454;-79
2022/09/09 21:20:42;;;;;;;;;;;;;;;;;;8382427;28;27691;-80
2022/09/09 21:24:42;;;;;;;;;;;;;;;;;;8378471;28;27476;-80
2022/09/09 21:28:42;;;;;;;;;;;;;;;;;;8361514;28;28177;-81
2022/09/09 21:32:43;;;;;;;;;;;;;;;;;;8362536;28;28476;-81
2022/09/09 21:36:43;;;;;;;;;;;;;;;;;;8364919;28;28366;-80
2022/09/09 21:40:43;;;;;;;;;;;;;;;;;;8379851;28;27653;-81
2022/09/09 21:44:43;;;;;;;;;;;;;;;;;;8368236;28;28172;-80
2022/09/09 21:48:43;;;;;;;;;;;;;;;;;;8368139;28;28564;-81
2022/09/09 21:52:44;;;;;;;;;;;;;;;;;;8367122;28;29636;-80
2022/09/09 21:56:44;;;;;;;;;;;;;;;;;;8381383;28;29276;-80
2022/09/09 22:00:44;;;;;;;;;;;;;;;;;;8382497;28;27498;-82
2022/09/09 22:04:44;;;;;;;;;;;;;;;;;;8384867;28;28069;-80
2022/09/09 22:08:44;;;;;;;;;;;;;;;;;;8368952;28;28042;-80
2022/09/09 22:12:45;;;;;;;;;;;;;;;;;;8369345;28;28555;-81
2022/09/09 22:16:45;;;;;;;;;;;;;;;;;;8379974;28;28574;-80
2022/09/09 22:20:46;;;;;;;;;;;;;;;;;;8380065;28;27516;-80
2022/09/09 22:24:46;;;;;;;;;;;;;;;;;;8367122;28;29710;-80
2022/09/09 22:28:47;;;;;;;;;;;;;;;;;;8380889;27;29341;-81
2022/09/09 22:32:47;;;;;;;;;;;;;;;;;;8372021;28;28640;-81
2022/09/09 22:36:49;;;;;;;;;;;;;;;;;;8376120;28;27973;-81
2022/09/09 22:40:50;;;;;;;;;;;;;;;;;;8372644;28;28337;-80
2022/09/09 22:44:50;;;;;;;;;;;;;;;;;;8371227;28;28104;-81
2022/09/09 22:48:50;;;;;;;;;;;;;;;;;;8371580;28;28006;-80
2022/09/09 22:52:51;;;;;;;;;;;;;;;;;;8359736;28;28262;-79
2022/09/09 22:56:51;;;;;;;;;;;;;;;;;;8378627;28;27355;-81
2022/09/09 23:00:51;;;;;;;;;;;;;;;;;;8371194;28;27518;-80
2022/09/09 23:04:51;;;;;;;;;;;;;;;;;;8367652;28;28921;-81
2022/09/09 23:08:54;;;;;;;;;;;;;;;;;;8367648;28;27506;-81
2022/09/09 23:12:55;;;;;;;;;;;;;;;;;;8363768;28;29475;-81
2022/09/09 23:16:55;;;;;;;;;;;;;;;;;;8363273;28;28964;-81
2022/09/09 23:20:59;;;;;;;;;;;;;;;;;;8376811;28;27380;-80
2022/09/09 23:24:59;;;;;;;;;;;;;;;;;;8360820;28;28434;-80
2022/09/09 23:28:59;;;;;;;;;;;;;;;;;;8357266;28;28729;-80
2022/09/09 23:32:59;;;;;;;;;;;;;;;;;;8367818;28;27898;-79
2022/09/09 23:36:59;;;;;;;;;;;;;;;;;;8373330;28;27547;-80
2022/09/09 23:41:00;;;;;;;;;;;;;;;;;;8364754;28;28224;-80
2022/09/09 23:45:00;;;;;;;;;;;;;;;;;;8380591;28;27188;-81
2022/09/09 23:49:01;;;;;;;;;;;;;;;;;;8359770;28;28592;-79
2022/09/09 23:53:02;;;;;;;;;;;;;;;;;;8375825;28;27494;-80
2022/09/09 23:57:02;;;;;;;;;;;;;;;;;;8366589;28;28543;-79
